EDDF/FRA METAR and TAF weather

Enter ICAO airport designator
Station Type Date Time Source
EDDF METAR 2018/07/21 03:50 UTC NOAA

EDDF 210350Z 23006KT CAVOK 20/14 Q1010 NOSIG


Station Type Date Time Source
EDDF Decoded METAR 2018/07/21 03:50 UTC NOAA

Frankfurt / M-Flughafen, Germany (EDDF) 50-03N 008-36E 113M
Jul 20, 2018 - 11:50 PM EDT / 2018.07.21 0350 UTC
Wind: from the SW (230 degrees) at 7 MPH (6 KT):0
Visibility: greater than 7 mile(s):0
Temperature: 68 F (20 C)
Dew Point: 57 F (14 C)
Relative Humidity: 68%
Pressure (altimeter): 29.83 in. Hg (1010 hPa)
ob: EDDF 210350Z 23006KT CAVOK 20/14 Q1010 NOSIG
cycle: 4

Station Type Date Time Source
EDDF TAF 2018/07/20 18:27 UTC NOAA

TAF TAF EDDF 201700Z 2018/2124 VRB03KT CAVOK
BECMG 2100/2103 20005KT PROB40
TEMPO 2100/2107 SHRA SCT050TCU PROB30
TEMPO 2111/2118 24015G25KT TSRA SCT040CB


Example: see airport list